Time;durP1;ratioP1;P1;durP2;ratioP2;P2;SDS_P1;SDS_P2;PMS_P1;PMS_P2;Temp;Humidity;BMP_temperature;BMP_pressure;BME280_temperature;BME280_humidity;BME280_pressure;Samples;Min_cycle;Max_cycle;Signal;HPM_P1;HPM_P2
2023/10/10 00:01:38;;;;;;;;;16.00;14.75;;;;;;;;5027297;28;10935;-80
2023/10/10 00:04:05;;;;;;;;;19.75;16.50;;;;;;;;5034778;28;10711;-80
2023/10/10 00:06:33;;;;;;;;;15.50;14.50;;;;;;;;5043439;28;10775;-80
2023/10/10 00:08:58;;;;;;;;;15.50;14.25;;;;;;;;5026136;28;10704;-80
2023/10/10 00:11:26;;;;;;;;;18.75;11.00;;;;;;;;5040992;28;10921;-80
2023/10/10 00:14:04;;;;;;;;;16.50;15.50;;;;;;;;5023127;28;8722;-80
2023/10/10 00:16:37;;;;;;;;;14.25;12.00;;;;;;;;5024459;28;10624;-80
2023/10/10 00:19:17;;;;;;;;;16.50;13.50;;;;;;;;5024269;28;10664;-80
2023/10/10 00:21:43;;;;;;;;;18.00;15.50;;;;;;;;5022273;28;11949;-80
2023/10/10 00:24:12;;;;;;;;;17.25;12.25;;;;;;;;5024012;28;10635;-80
2023/10/10 00:26:38;;;;;;;;;13.75;12.25;;;;;;;;5036132;28;8766;-80
2023/10/10 00:29:06;;;;;;;;;17.25;13.00;;;;;;;;5043534;28;10649;-80
2023/10/10 00:31:31;;;;;;;;;14.25;12.00;;;;;;;;5044179;28;8779;-80
2023/10/10 00:33:56;;;;;;;;;17.75;12.75;;;;;;;;5058697;28;10838;-79
2023/10/10 00:36:23;;;;;;;;;13.50;13.25;;;;;;;;5059056;28;8829;-80
2023/10/10 00:39:22;;;;;;;;;23.50;15.50;;;;;;;;5044202;28;8906;-80
2023/10/10 00:44:16;;;;;;;;;15.75;15.75;;;;;;;;5034441;28;10369;-80
2023/10/10 00:46:42;;;;;;;;;20.75;16.75;;;;;;;;5042254;28;10780;-80
2023/10/10 00:49:13;;;;;;;;;18.25;16.00;;;;;;;;5025084;28;10906;-80
2023/10/10 00:51:39;;;;;;;;;17.50;14.50;;;;;;;;5026044;28;9997;-80
2023/10/10 00:56:59;;;;;;;;;23.75;16.50;;;;;;;;5025992;28;8787;-80
2023/10/10 00:59:48;;;;;;;;;20.75;16.00;;;;;;;;5043086;28;10802;-79
2023/10/10 01:02:11;;;;;;;;;14.25;14.25;;;;;;;;5043161;28;8809;-80
2023/10/10 01:07:19;;;;;;;;;16.00;14.25;;;;;;;;5033736;28;10842;-80
2023/10/10 01:09:55;;;;;;;;;11.25;9.50;;;;;;;;5058446;28;10397;-79
2023/10/10 01:12:22;;;;;;;;;14.25;13.00;;;;;;;;5050452;28;11561;-79
2023/10/10 01:14:54;;;;;;;;;19.25;15.25;;;;;;;;5062908;28;10777;-80
2023/10/10 01:17:19;;;;;;;;;18.00;15.50;;;;;;;;5045188;28;10837;-80
2023/10/10 01:19:45;;;;;;;;;17.00;13.25;;;;;;;;5062730;28;10932;-80
2023/10/10 01:22:22;;;;;;;;;13.00;13.00;;;;;;;;5063030;28;9782;-81
2023/10/10 01:24:51;;;;;;;;;13.00;13.00;;;;;;;;5063347;28;8758;-80
2023/10/10 01:27:21;;;;;;;;;15.50;14.00;;;;;;;;5061889;28;10742;-80
2023/10/10 01:30:17;;;;;;;;;18.75;16.50;;;;;;;;5045038;28;10786;-80
2023/10/10 01:32:39;;;;;;;;;18.50;13.25;;;;;;;;5062149;28;10869;-80
2023/10/10 01:35:15;;;;;;;;;17.75;14.25;;;;;;;;5063211;28;10823;-79
2023/10/10 01:37:41;;;;;;;;;18.25;13.50;;;;;;;;5045189;28;10785;-80
2023/10/10 01:40:16;;;;;;;;;13.00;10.75;;;;;;;;5062948;28;10829;-80
2023/10/10 01:42:54;;;;;;;;;20.00;11.25;;;;;;;;5061468;28;8750;-80
2023/10/10 01:45:19;;;;;;;;;19.50;17.25;;;;;;;;5056452;28;10911;-79
2023/10/10 01:47:56;;;;;;;;;15.00;15.00;;;;;;;;5042447;28;10908;-80
2023/10/10 01:50:22;;;;;;;;;16.75;14.50;;;;;;;;5024945;28;8802;-80
2023/10/10 01:52:48;;;;;;;;;17.00;14.00;;;;;;;;5058344;28;11186;-81
2023/10/10 01:55:16;;;;;;;;;18.00;14.50;;;;;;;;5042771;28;8783;-80
2023/10/10 01:57:41;;;;;;;;;15.75;14.50;;;;;;;;5042365;28;8823;-79
2023/10/10 02:00:21;;;;;;;;;18.00;14.25;;;;;;;;5057542;28;10762;-80
2023/10/10 02:02:49;;;;;;;;;18.00;13.75;;;;;;;;5042337;28;8759;-79
2023/10/10 02:05:22;;;;;;;;;28.50;18.50;;;;;;;;5042648;28;10958;-79
2023/10/10 02:07:53;;;;;;;;;18.25;14.00;;;;;;;;5057720;28;10898;-79
2023/10/10 02:10:18;;;;;;;;;14.50;14.25;;;;;;;;5042586;28;10875;-80
2023/10/10 02:12:44;;;;;;;;;20.25;17.25;;;;;;;;5042015;28;11153;-79
2023/10/10 02:15:14;;;;;;;;;21.75;14.00;;;;;;;;5042250;28;8791;-79
2023/10/10 02:17:41;;;;;;;;;19.50;14.00;;;;;;;;5057318;28;8782;-80
2023/10/10 02:22:47;;;;;;;;;14.75;12.25;;;;;;;;5042280;28;11131;-79
2023/10/10 02:25:37;;;;;;;;;13.75;13.75;;;;;;;;5042625;28;10414;-80
2023/10/10 02:30:46;;;;;;;;;11.00;11.00;;;;;;;;5041843;28;10660;-80
2023/10/10 02:33:15;;;;;;;;;15.00;13.75;;;;;;;;5042511;28;10800;-80
2023/10/10 02:35:55;;;;;;;;;17.25;13.75;;;;;;;;5041821;28;10452;-79
2023/10/10 02:38:32;;;;;;;;;15.25;12.00;;;;;;;;5024552;28;11719;-80
2023/10/10 02:42:13;;;;;;;;;15.25;12.75;;;;;;;;5042363;28;10582;-80
2023/10/10 02:46:34;;;;;;;;;14.75;13.75;;;;;;;;5041210;28;10800;-79
2023/10/10 02:49:12;;;;;;;;;14.25;10.50;;;;;;;;5041983;28;10698;-80
2023/10/10 02:51:41;;;;;;;;;13.25;12.25;;;;;;;;5041968;28;10751;-80
2023/10/10 02:54:20;;;;;;;;;17.50;14.50;;;;;;;;5042370;28;10922;-80
2023/10/10 02:56:48;;;;;;;;;17.00;12.50;;;;;;;;5041715;28;10918;-79
2023/10/10 02:59:17;;;;;;;;;13.25;12.50;;;;;;;;5040953;28;10909;-80
2023/10/10 03:01:57;;;;;;;;;15.00;14.75;;;;;;;;5041721;28;10660;-80
2023/10/10 03:07:09;;;;;;;;;18.50;14.00;;;;;;;;5041893;28;10666;-80
2023/10/10 03:09:38;;;;;;;;;16.00;12.25;;;;;;;;5043148;28;10706;-80
2023/10/10 03:12:05;;;;;;;;;14.75;14.00;;;;;;;;5045473;28;8822;-80
2023/10/10 03:14:33;;;;;;;;;15.25;11.25;;;;;;;;5043836;28;10901;-80
2023/10/10 03:17:06;;;;;;;;;16.75;12.00;;;;;;;;5043944;28;10761;-80
2023/10/10 03:19:41;;;;;;;;;21.25;13.50;;;;;;;;5044716;28;10392;-80
2023/10/10 03:25:04;;;;;;;;;12.25;11.25;;;;;;;;5034749;28;11020;-80
2023/10/10 03:30:34;;;;;;;;;17.25;14.25;;;;;;;;5044420;28;10609;-80
2023/10/10 03:33:08;;;;;;;;;18.25;16.25;;;;;;;;5044746;28;11009;-79
2023/10/10 03:35:51;;;;;;;;;16.50;11.50;;;;;;;;5060255;28;11036;-80
2023/10/10 05:25:10;;;;;;;;;16.50;14.00;;;;;;;;4941936;29;11431;-78
2023/10/10 05:27:41;;;;;;;;;18.25;17.25;;;;;;;;4942793;29;10994;-81
2023/10/10 05:30:07;;;;;;;;;17.75;13.25;;;;;;;;4925448;29;11176;-81
2023/10/10 05:32:32;;;;;;;;;20.25;18.00;;;;;;;;5019766;28;10944;-79
2023/10/10 05:34:58;;;;;;;;;13.00;13.00;;;;;;;;5037115;28;11066;-80
2023/10/10 05:37:25;;;;;;;;;17.75;15.75;;;;;;;;5034897;28;8783;-77
2023/10/10 05:39:56;;;;;;;;;15.75;14.75;;;;;;;;5043425;28;8823;-77
2023/10/10 05:42:25;;;;;;;;;17.75;15.00;;;;;;;;5033249;28;11211;-82
2023/10/10 05:44:51;;;;;;;;;16.75;14.25;;;;;;;;5036964;28;11154;-86
2023/10/10 05:47:17;;;;;;;;;22.00;20.00;;;;;;;;5040410;28;11256;-84
2023/10/10 05:49:42;;;;;;;;;9.00;6.50;;;;;;;;5038993;28;8847;-84
2023/10/10 05:52:07;;;;;;;;;23.50;18.25;;;;;;;;5040451;28;11014;-83
2023/10/10 05:54:33;;;;;;;;;24.75;18.75;;;;;;;;5040637;28;9705;-83
2023/10/10 05:56:58;;;;;;;;;19.50;17.00;;;;;;;;5042138;28;8846;-83
2023/10/10 05:59:23;;;;;;;;;19.75;16.25;;;;;;;;5040997;28;9029;-83
2023/10/10 06:01:49;;;;;;;;;20.50;15.75;;;;;;;;5038251;28;8817;-83
2023/10/10 06:04:14;;;;;;;;;23.50;17.75;;;;;;;;5020892;28;11049;-83
2023/10/10 06:06:42;;;;;;;;;18.00;16.50;;;;;;;;5021046;28;8898;-83
2023/10/10 06:09:18;;;;;;;;;23.75;18.25;;;;;;;;5039644;28;8744;-83
2023/10/10 06:11:44;;;;;;;;;25.50;19.00;;;;;;;;5023472;28;11211;-84
2023/10/10 06:14:09;;;;;;;;;22.00;17.75;;;;;;;;5037955;28;11424;-84
2023/10/10 06:16:35;;;;;;;;;23.00;19.25;;;;;;;;5046030;28;8815;-84
2023/10/10 06:19:01;;;;;;;;;20.00;18.25;;;;;;;;5027374;28;8819;-83
2023/10/10 06:21:26;;;;;;;;;21.25;19.75;;;;;;;;5022514;28;11280;-83
2023/10/10 06:23:51;;;;;;;;;23.50;21.75;;;;;;;;5041521;28;8791;-82
2023/10/10 06:26:21;;;;;;;;;20.75;17.25;;;;;;;;5041588;28;8976;-83
2023/10/10 06:28:47;;;;;;;;;30.25;22.25;;;;;;;;5059576;28;8757;-81
2023/10/10 06:31:19;;;;;;;;;29.00;23.25;;;;;;;;5024781;28;11443;-81
2023/10/10 06:33:50;;;;;;;;;20.50;17.00;;;;;;;;5048919;28;11529;-81
2023/10/10 06:41:36;;;;;;;;;25.50;20.50;;;;;;;;5041903;28;11427;-81
2023/10/10 06:44:04;;;;;;;;;24.25;20.75;;;;;;;;5044896;28;11519;-81
2023/10/10 06:46:32;;;;;;;;;24.75;19.50;;;;;;;;5019242;28;11423;-81
2023/10/10 06:49:04;;;;;;;;;23.25;18.50;;;;;;;;5040922;28;11484;-81
2023/10/10 06:51:29;;;;;;;;;26.50;21.25;;;;;;;;5043114;28;11476;-81
2023/10/10 06:53:56;;;;;;;;;27.00;21.50;;;;;;;;5043618;28;11469;-81
2023/10/10 06:56:43;;;;;;;;;27.50;19.25;;;;;;;;5013893;28;8726;-81
2023/10/10 06:59:09;;;;;;;;;22.50;21.50;;;;;;;;5042914;28;11601;-81
2023/10/10 07:01:34;;;;;;;;;21.00;20.75;;;;;;;;5052265;28;11367;-81
2023/10/10 07:04:04;;;;;;;;;23.25;20.50;;;;;;;;5044216;28;11591;-81
2023/10/10 07:06:29;;;;;;;;;30.50;23.75;;;;;;;;5035076;28;8726;-81
2023/10/10 07:09:14;;;;;;;;;25.00;21.25;;;;;;;;5024799;28;11427;-81
2023/10/10 07:11:39;;;;;;;;;29.75;26.25;;;;;;;;5047537;28;8726;-81
2023/10/10 07:14:08;;;;;;;;;28.50;21.00;;;;;;;;5055640;28;11351;-81
2023/10/10 07:16:33;;;;;;;;;28.25;25.75;;;;;;;;5043871;28;8810;-81
2023/10/10 07:18:58;;;;;;;;;33.50;26.00;;;;;;;;5044140;28;11215;-81
2023/10/10 07:21:36;;;;;;;;;30.25;25.75;;;;;;;;5037676;28;8854;-81
2023/10/10 07:24:14;;;;;;;;;33.75;27.50;;;;;;;;5028730;28;10125;-81
2023/10/10 07:26:44;;;;;;;;;33.50;24.75;;;;;;;;5043736;28;11526;-81
2023/10/10 07:29:30;;;;;;;;;36.00;27.00;;;;;;;;5044513;28;11438;-81
2023/10/10 07:32:04;;;;;;;;;41.50;30.25;;;;;;;;5043010;28;11384;-81
2023/10/10 07:34:39;;;;;;;;;36.00;27.50;;;;;;;;5043242;28;11428;-81
2023/10/10 07:37:14;;;;;;;;;45.25;30.75;;;;;;;;5035355;28;11240;-81
2023/10/10 07:39:55;;;;;;;;;32.00;27.00;;;;;;;;5007088;28;11399;-81
2023/10/10 07:42:30;;;;;;;;;36.25;30.50;;;;;;;;5042874;28;12378;-82
2023/10/10 07:44:56;;;;;;;;;34.75;25.25;;;;;;;;5046970;28;11452;-81
2023/10/10 07:47:25;;;;;;;;;28.00;26.50;;;;;;;;5046852;28;11449;-81
2023/10/10 07:49:54;;;;;;;;;31.50;29.50;;;;;;;;5041722;28;9192;-81
2023/10/10 07:52:22;;;;;;;;;28.25;25.50;;;;;;;;5042894;28;11661;-81
2023/10/10 07:54:51;;;;;;;;;34.25;28.50;;;;;;;;5025812;28;11411;-81
2023/10/10 07:57:17;;;;;;;;;31.00;30.50;;;;;;;;5046354;28;11225;-81
2023/10/10 07:59:46;;;;;;;;;34.25;26.00;;;;;;;;5042098;28;11184;-80
2023/10/10 08:05:11;;;;;;;;;34.50;28.50;;;;;;;;5021367;28;11402;-80
2023/10/10 08:07:36;;;;;;;;;35.50;26.75;;;;;;;;5061214;28;11224;-80
2023/10/10 08:10:14;;;;;;;;;34.75;28.25;;;;;;;;5059653;28;11250;-80
2023/10/10 08:12:40;;;;;;;;;42.00;28.50;;;;;;;;5024194;28;8795;-80
2023/10/10 08:15:24;;;;;;;;;47.75;35.75;;;;;;;;5042479;28;11474;-80
2023/10/10 08:17:54;;;;;;;;;34.50;29.75;;;;;;;;5028928;28;11501;-81
2023/10/10 08:20:35;;;;;;;;;30.25;29.75;;;;;;;;5024361;28;11438;-82
2023/10/10 08:23:01;;;;;;;;;35.00;30.50;;;;;;;;5054509;28;12470;-82
2023/10/10 08:25:27;;;;;;;;;38.25;32.00;;;;;;;;5044281;28;11442;-81
2023/10/10 08:27:52;;;;;;;;;39.25;30.00;;;;;;;;5042922;28;11722;-81
2023/10/10 08:30:17;;;;;;;;;37.75;28.75;;;;;;;;5043267;28;9646;-80
2023/10/10 08:32:43;;;;;;;;;31.50;28.75;;;;;;;;5025418;28;9606;-81
2023/10/10 08:35:10;;;;;;;;;36.25;30.50;;;;;;;;5058111;28;10105;-80
2023/10/10 08:37:36;;;;;;;;;30.00;20.25;;;;;;;;5043330;28;11141;-80
2023/10/10 08:40:15;;;;;;;;;40.00;32.00;;;;;;;;5014455;28;11500;-81
2023/10/10 08:42:42;;;;;;;;;33.25;27.25;;;;;;;;5023018;28;8785;-81
2023/10/10 08:45:22;;;;;;;;;40.75;32.00;;;;;;;;5014803;28;11460;-80
2023/10/10 08:47:48;;;;;;;;;39.25;31.00;;;;;;;;5024937;28;11377;-80
2023/10/10 08:50:15;;;;;;;;;40.75;32.75;;;;;;;;5019903;28;11392;-81
2023/10/10 08:52:41;;;;;;;;;38.25;30.25;;;;;;;;5042931;28;11404;-80
2023/10/10 08:55:10;;;;;;;;;35.50;30.25;;;;;;;;5041340;28;11447;-81
2023/10/10 08:57:38;;;;;;;;;32.25;25.25;;;;;;;;5042416;28;8728;-81
2023/10/10 09:00:06;;;;;;;;;34.25;30.75;;;;;;;;5042475;28;11125;-80
2023/10/10 09:02:33;;;;;;;;;37.25;30.75;;;;;;;;5039642;28;11394;-81
2023/10/10 09:04:58;;;;;;;;;33.00;26.75;;;;;;;;5042863;28;11249;-80
2023/10/10 09:07:28;;;;;;;;;34.50;29.75;;;;;;;;5045185;28;11868;-80
2023/10/10 09:10:05;;;;;;;;;43.75;33.00;;;;;;;;5035232;28;8755;-80
2023/10/10 09:12:48;;;;;;;;;43.00;33.00;;;;;;;;5024238;28;11150;-80
2023/10/10 09:15:16;;;;;;;;;45.00;34.75;;;;;;;;5042442;28;11394;-80
2023/10/10 09:17:41;;;;;;;;;43.50;33.00;;;;;;;;5041992;28;11514;-80
2023/10/10 09:23:21;;;;;;;;;34.75;30.50;;;;;;;;5033925;28;8790;-80
2023/10/10 09:25:48;;;;;;;;;33.75;28.50;;;;;;;;5029448;28;11095;-80
2023/10/10 09:28:30;;;;;;;;;36.75;31.00;;;;;;;;5155514;27;13425;-75
2023/10/10 09:31:00;;;;;;;;;41.75;32.25;;;;;;;;5159581;27;11128;-75
2023/10/10 09:33:30;;;;;;;;;34.50;28.25;;;;;;;;5119587;27;10822;-75
2023/10/10 09:36:08;;;;;;;;;34.75;25.50;;;;;;;;5119227;28;11107;-75
2023/10/10 09:38:45;;;;;;;;;30.00;27.50;;;;;;;;5134984;27;10874;-75
2023/10/10 09:41:14;;;;;;;;;34.50;25.50;;;;;;;;5117839;28;10543;-75
2023/10/10 09:43:49;;;;;;;;;30.75;24.25;;;;;;;;5143633;27;10695;-74
2023/10/10 09:46:24;;;;;;;;;28.00;21.50;;;;;;;;5139219;27;10926;-75
2023/10/10 09:49:17;;;;;;;;;26.00;20.75;;;;;;;;5119056;28;10758;-74
2023/10/10 09:54:26;;;;;;;;;27.00;20.75;;;;;;;;5139839;27;10449;-76
2023/10/10 09:56:53;;;;;;;;;26.25;19.00;;;;;;;;5139306;27;10700;-74
2023/10/10 09:59:20;;;;;;;;;20.50;18.00;;;;;;;;5139469;27;8756;-75
2023/10/10 10:01:57;;;;;;;;;17.75;16.25;;;;;;;;5137969;27;10434;-75
2023/10/10 10:04:28;;;;;;;;;18.25;15.50;;;;;;;;5142919;27;10188;-75
2023/10/10 10:07:12;;;;;;;;;27.25;25.50;;;;;;;;5139142;27;10260;-74
2023/10/10 10:09:46;;;;;;;;;20.50;19.50;;;;;;;;5139588;27;10596;-75
2023/10/10 10:12:35;;;;;;;;;16.25;15.00;;;;;;;;5155050;27;10902;-75
2023/10/10 10:15:19;;;;;;;;;17.25;15.25;;;;;;;;5148530;27;10065;-76
2023/10/10 10:17:53;;;;;;;;;13.25;10.75;;;;;;;;5138959;27;11070;-75
2023/10/10 10:20:25;;;;;;;;;14.75;13.00;;;;;;;;5139504;27;9883;-75
2023/10/10 10:22:53;;;;;;;;;13.75;12.25;;;;;;;;5155188;27;9648;-74
2023/10/10 10:25:22;;;;;;;;;12.25;10.25;;;;;;;;5139516;27;9690;-76
2023/10/10 10:27:53;;;;;;;;;7.00;7.00;;;;;;;;5155106;27;10024;-74
2023/10/10 10:32:44;;;;;;;;;11.00;11.00;;;;;;;;5160130;27;9858;-73
2023/10/10 10:35:13;;;;;;;;;14.33;11.33;;;;;;;;5159900;27;8761;-73
2023/10/10 10:37:39;;;;;;;;;14.75;12.25;;;;;;;;5158177;27;9525;-73
2023/10/10 10:42:50;;;;;;;;;12.25;11.25;;;;;;;;5107169;27;9603;-74
2023/10/10 10:45:40;;;;;;;;;10.00;10.00;;;;;;;;5133157;27;9682;-73
2023/10/10 10:48:17;;;;;;;;;12.25;12.25;;;;;;;;5135333;27;11139;-74
2023/10/10 10:50:42;;;;;;;;;15.00;11.50;;;;;;;;5124967;27;9607;-77
2023/10/10 10:53:20;;;;;;;;;11.25;8.75;;;;;;;;5126323;27;9647;-77
2023/10/10 10:55:59;;;;;;;;;10.00;8.25;;;;;;;;5127743;27;8760;-76
2023/10/10 10:58:26;;;;;;;;;10.67;9.00;;;;;;;;5124460;27;10482;-76
2023/10/10 11:03:23;;;;;;;;;11.00;9.67;;;;;;;;5127373;27;9480;-79
2023/10/10 11:05:53;;;;;;;;;8.25;8.25;;;;;;;;5123130;28;9411;-77
2023/10/10 11:08:45;;;;;;;;;11.25;10.50;;;;;;;;5122734;28;10300;-76
2023/10/10 11:11:23;;;;;;;;;16.25;8.75;;;;;;;;5122350;28;9634;-75
2023/10/10 11:13:49;;;;;;;;;8.50;6.50;;;;;;;;5121535;28;9622;-75
2023/10/10 11:16:15;;;;;;;;;14.00;11.25;;;;;;;;5121801;28;9494;-73
2023/10/10 11:18:41;;;;;;;;;10.33;7.67;;;;;;;;5123163;27;11499;-74
2023/10/10 11:21:11;;;;;;;;;11.67;10.33;;;;;;;;5123792;27;11159;-76
2023/10/10 11:23:41;;;;;;;;;11.67;7.00;;;;;;;;5124104;27;9429;-73
2023/10/10 11:26:08;;;;;;;;;11.00;7.33;;;;;;;;5122837;27;9265;-75
2023/10/10 11:28:46;;;;;;;;;13.00;5.33;;;;;;;;5123591;27;9483;-74
2023/10/10 11:31:12;;;;;;;;;6.67;6.67;;;;;;;;5127306;27;9078;-74
2023/10/10 11:33:48;;;;;;;;;5.67;5.67;;;;;;;;5136653;27;9274;-75
2023/10/10 11:36:19;;;;;;;;;9.00;6.33;;;;;;;;5123602;28;8813;-74
2023/10/10 11:38:55;;;;;;;;;7.67;6.00;;;;;;;;5123904;27;9376;-75
2023/10/10 11:41:29;;;;;;;;;9.33;7.33;;;;;;;;5123275;28;9228;-74
2023/10/10 11:44:01;;;;;;;;;5.67;5.33;;;;;;;;5121400;28;9148;-77
2023/10/10 11:46:27;;;;;;;;;6.00;5.00;;;;;;;;5121012;28;9024;-78
2023/10/10 11:48:54;;;;;;;;;4.00;4.00;;;;;;;;5124405;27;9018;-78
2023/10/10 11:51:32;;;;;;;;;8.33;6.00;;;;;;;;5121193;27;8739;-78
2023/10/10 11:53:58;;;;;;;;;8.67;6.00;;;;;;;;5122191;27;9029;-77
2023/10/10 11:56:25;;;;;;;;;6.33;6.33;;;;;;;;5121557;28;9009;-78
2023/10/10 11:58:52;;;;;;;;;12.00;9.00;;;;;;;;5122405;28;10317;-78
2023/10/10 12:01:47;;;;;;;;;10.33;8.00;;;;;;;;5122170;28;9187;-77
2023/10/10 12:04:20;;;;;;;;;6.33;6.33;;;;;;;;5123463;28;9096;-78
2023/10/10 12:06:45;;;;;;;;;7.67;6.00;;;;;;;;5122193;28;8901;-78
2023/10/10 12:09:13;;;;;;;;;10.00;7.33;;;;;;;;5123935;28;9127;-78
2023/10/10 12:11:38;;;;;;;;;6.00;6.00;;;;;;;;5121933;28;8787;-78
2023/10/10 12:14:04;;;;;;;;;9.00;5.33;;;;;;;;5122973;28;9035;-78
2023/10/10 12:16:29;;;;;;;;;5.33;5.00;;;;;;;;5122031;28;8868;-78
2023/10/10 12:18:54;;;;;;;;;9.00;5.00;;;;;;;;5137888;27;8828;-78
2023/10/10 12:21:23;;;;;;;;;4.33;3.33;;;;;;;;5144186;27;8962;-78
2023/10/10 12:23:50;;;;;;;;;5.50;5.25;;;;;;;;5144329;27;8765;-78
2023/10/10 12:26:16;;;;;;;;;8.67;6.33;;;;;;;;5128196;27;8779;-75
2023/10/10 12:28:43;;;;;;;;;5.00;5.00;;;;;;;;5120243;28;9138;-74
2023/10/10 12:31:15;;;;;;;;;7.33;6.33;;;;;;;;5125419;27;8736;-74
2023/10/10 12:33:41;;;;;;;;;7.67;5.67;;;;;;;;5143731;27;8947;-76
2023/10/10 12:36:09;;;;;;;;;10.00;5.33;;;;;;;;5142548;27;9012;-76
2023/10/10 12:38:35;;;;;;;;;6.00;4.50;;;;;;;;5144230;27;8718;-74
2023/10/10 12:41:00;;;;;;;;;9.33;7.67;;;;;;;;5123258;27;8775;-73
2023/10/10 12:43:25;;;;;;;;;9.00;6.33;;;;;;;;5122890;28;8813;-73
2023/10/10 12:45:51;;;;;;;;;8.00;8.00;;;;;;;;5122964;28;8807;-80
2023/10/10 12:48:25;;;;;;;;;5.00;5.00;;;;;;;;5131316;27;10001;-80
2023/10/10 12:50:50;;;;;;;;;11.50;6.75;;;;;;;;5144149;27;8798;-80
2023/10/10 12:53:18;;;;;;;;;4.00;3.00;;;;;;;;5134960;27;9171;-79
2023/10/10 12:55:51;;;;;;;;;8.33;4.00;;;;;;;;5122238;28;8732;-74
2023/10/10 12:58:20;;;;;;;;;8.00;5.00;;;;;;;;5122340;27;8910;-74
2023/10/10 13:00:52;;;;;;;;;8.25;6.00;;;;;;;;5119471;28;8826;-75
2023/10/10 13:03:32;;;;;;;;;5.75;4.50;;;;;;;;5120969;28;8798;-75
2023/10/10 13:05:59;;;;;;;;;6.25;5.00;;;;;;;;5120329;28;8771;-75
2023/10/10 13:08:38;;;;;;;;;7.25;5.50;;;;;;;;5119413;27;8774;-77
2023/10/10 13:11:14;;;;;;;;;8.50;4.75;;;;;;;;5119301;28;8795;-74
2023/10/10 13:13:48;;;;;;;;;7.00;5.00;;;;;;;;5120488;28;8763;-74
2023/10/10 13:16:37;;;;;;;;;6.50;5.75;;;;;;;;5120537;28;8812;-77
2023/10/10 13:19:07;;;;;;;;;6.00;4.00;;;;;;;;5122033;27;8763;-74
2023/10/10 13:21:36;;;;;;;;;4.75;4.75;;;;;;;;5123281;27;8802;-74
2023/10/10 13:24:01;;;;;;;;;5.50;4.00;;;;;;;;5122749;27;8989;-74
2023/10/10 13:26:27;;;;;;;;;5.33;5.33;;;;;;;;5121578;28;8799;-74
2023/10/10 13:28:53;;;;;;;;;4.00;4.00;;;;;;;;5121772;28;8907;-74
2023/10/10 13:31:18;;;;;;;;;5.33;5.00;;;;;;;;5122405;27;9257;-75
2023/10/10 13:33:44;;;;;;;;;7.00;4.00;;;;;;;;5121670;27;9602;-76
2023/10/10 13:36:15;;;;;;;;;3.67;3.67;;;;;;;;5120073;28;8807;-75
2023/10/10 13:38:47;;;;;;;;;6.50;3.75;;;;;;;;5132215;27;8764;-75
2023/10/10 13:41:16;;;;;;;;;6.00;4.25;;;;;;;;5145442;27;8800;-75
2023/10/10 13:43:43;;;;;;;;;7.75;5.00;;;;;;;;5130094;27;8828;-75
2023/10/10 13:46:09;;;;;;;;;4.75;3.00;;;;;;;;5123824;27;8937;-74
2023/10/10 13:48:37;;;;;;;;;5.00;5.00;;;;;;;;5133867;27;8811;-74
2023/10/10 13:51:07;;;;;;;;;7.50;5.00;;;;;;;;5130894;27;8846;-74
2023/10/10 13:53:32;;;;;;;;;4.50;4.50;;;;;;;;5127896;27;8786;-74
2023/10/10 13:56:00;;;;;;;;;4.00;4.00;;;;;;;;5134133;27;9076;-74
2023/10/10 13:58:25;;;;;;;;;6.67;5.00;;;;;;;;5138168;27;10306;-75
2023/10/10 14:00:55;;;;;;;;;8.00;6.00;;;;;;;;5130150;27;8847;-76
2023/10/10 14:03:29;;;;;;;;;7.25;5.00;;;;;;;;5131471;27;8824;-76
2023/10/10 14:06:08;;;;;;;;;9.75;7.00;;;;;;;;5130822;27;8760;-76
2023/10/10 14:08:33;;;;;;;;;5.25;5.00;;;;;;;;5127914;27;10137;-74
2023/10/10 14:11:00;;;;;;;;;5.00;4.00;;;;;;;;5132888;27;8811;-75
2023/10/10 14:13:28;;;;;;;;;4.25;4.00;;;;;;;;5124073;27;8829;-74
2023/10/10 14:16:01;;;;;;;;;3.75;3.00;;;;;;;;5126573;27;8822;-74
2023/10/10 14:18:42;;;;;;;;;6.00;4.50;;;;;;;;5129681;27;8768;-74
2023/10/10 14:21:08;;;;;;;;;5.00;3.00;;;;;;;;5139725;27;8763;-79
2023/10/10 14:23:35;;;;;;;;;4.67;3.67;;;;;;;;5125494;27;8831;-77
2023/10/10 14:26:13;;;;;;;;;4.50;3.25;;;;;;;;5122668;27;9814;-80
2023/10/10 14:28:51;;;;;;;;;5.75;4.50;;;;;;;;5122999;27;10375;-76
2023/10/10 14:31:21;;;;;;;;;4.00;4.00;;;;;;;;5124603;27;8799;-77
2023/10/10 14:33:47;;;;;;;;;5.50;4.00;;;;;;;;5126253;27;8768;-75
2023/10/10 14:36:13;;;;;;;;;3.75;2.75;;;;;;;;5130208;27;8787;-76
2023/10/10 14:38:44;;;;;;;;;3.00;3.00;;;;;;;;5125784;27;9985;-75
2023/10/10 14:41:16;;;;;;;;;3.75;3.75;;;;;;;;5127738;27;8835;-76
2023/10/10 14:43:47;;;;;;;;;2.75;2.75;;;;;;;;5132620;27;8773;-76
2023/10/10 14:46:14;;;;;;;;;5.50;3.00;;;;;;;;5124292;27;8779;-77
2023/10/10 14:48:39;;;;;;;;;6.50;3.50;;;;;;;;5125310;27;8775;-77
2023/10/10 14:51:05;;;;;;;;;3.00;3.00;;;;;;;;5128147;27;8850;-75
2023/10/10 14:53:34;;;;;;;;;3.67;3.67;;;;;;;;5139681;27;8882;-75
2023/10/10 14:56:05;;;;;;;;;5.00;2.75;;;;;;;;5139928;27;9653;-75
2023/10/10 14:58:30;;;;;;;;;5.75;3.25;;;;;;;;5130268;27;8836;-75
2023/10/10 15:00:56;;;;;;;;;6.00;5.67;;;;;;;;5128271;27;8808;-74
2023/10/10 15:03:25;;;;;;;;;6.00;4.50;;;;;;;;5123822;27;8778;-75
2023/10/10 15:05:50;;;;;;;;;5.25;4.25;;;;;;;;5123181;27;8801;-77
2023/10/10 15:08:16;;;;;;;;;4.00;4.00;;;;;;;;5123978;28;8925;-77
2023/10/10 15:10:41;;;;;;;;;8.67;4.67;;;;;;;;5124558;27;8791;-77
2023/10/10 15:13:15;;;;;;;;;3.67;2.67;;;;;;;;5136504;27;8865;-77
2023/10/10 15:15:45;;;;;;;;;3.00;3.00;;;;;;;;5135312;27;8745;-77
2023/10/10 15:18:12;;;;;;;;;5.75;4.25;;;;;;;;5133467;27;8822;-75
2023/10/10 15:20:38;;;;;;;;;5.50;3.50;;;;;;;;5132333;27;8740;-77
2023/10/10 15:23:04;;;;;;;;;3.75;3.50;;;;;;;;5130714;27;9010;-77
2023/10/10 15:25:30;;;;;;;;;4.67;3.33;;;;;;;;5131135;27;8763;-73
2023/10/10 15:27:56;;;;;;;;;9.67;5.00;;;;;;;;5136401;27;9418;-76
2023/10/10 15:30:21;;;;;;;;;7.75;4.75;;;;;;;;5134038;27;9517;-76
2023/10/10 15:32:47;;;;;;;;;6.00;5.00;;;;;;;;5132911;27;8787;-76
2023/10/10 15:35:13;;;;;;;;;4.00;3.33;;;;;;;;5133471;27;8792;-76
2023/10/10 15:37:44;;;;;;;;;2.33;2.33;;;;;;;;5137048;27;8890;-76
2023/10/10 15:40:30;;;;;;;;;6.75;4.25;;;;;;;;5139865;27;9814;-76
2023/10/10 15:42:58;;;;;;;;;4.50;3.25;;;;;;;;5123380;27;8809;-76
2023/10/10 15:45:23;;;;;;;;;6.75;5.00;;;;;;;;5129600;27;8863;-74
2023/10/10 15:47:52;;;;;;;;;5.00;3.33;;;;;;;;5133901;27;8900;-78
2023/10/10 15:50:17;;;;;;;;;7.25;5.50;;;;;;;;5132161;27;8822;-78
2023/10/10 15:52:48;;;;;;;;;7.00;5.00;;;;;;;;5132963;27;8892;-78
2023/10/10 15:55:23;;;;;;;;;8.25;5.50;;;;;;;;5124761;27;8919;-78
2023/10/10 15:57:52;;;;;;;;;7.25;5.25;;;;;;;;5129093;27;8768;-78
2023/10/10 16:00:20;;;;;;;;;8.50;6.00;;;;;;;;5127950;27;8762;-78
2023/10/10 16:02:48;;;;;;;;;7.00;4.75;;;;;;;;5127852;27;8862;-74
2023/10/10 16:05:16;;;;;;;;;5.33;5.00;;;;;;;;5127369;27;8801;-74
2023/10/10 16:07:46;;;;;;;;;8.75;5.00;;;;;;;;5130684;27;8919;-74
2023/10/10 16:10:11;;;;;;;;;4.00;4.00;;;;;;;;5131736;27;8792;-74
2023/10/10 16:12:37;;;;;;;;;6.00;6.00;;;;;;;;5124977;27;8853;-75
2023/10/10 16:15:02;;;;;;;;;7.33;5.33;;;;;;;;5123733;27;8824;-75
2023/10/10 16:17:28;;;;;;;;;6.67;6.67;;;;;;;;5127044;27;8810;-74
2023/10/10 16:19:53;;;;;;;;;8.50;5.75;;;;;;;;5133403;27;9932;-74
2023/10/10 16:22:18;;;;;;;;;4.33;4.33;;;;;;;;5124127;27;8858;-74
2023/10/10 16:24:44;;;;;;;;;7.33;4.33;;;;;;;;5138979;27;8797;-73
2023/10/10 16:27:09;;;;;;;;;7.67;5.00;;;;;;;;5127712;27;10135;-74
2023/10/10 16:29:35;;;;;;;;;5.00;4.33;;;;;;;;5125796;27;8811;-73
2023/10/10 16:32:07;;;;;;;;;5.00;3.67;;;;;;;;5133958;27;9022;-74
2023/10/10 16:34:33;;;;;;;;;4.67;4.00;;;;;;;;5132082;27;8834;-73
2023/10/10 16:36:58;;;;;;;;;8.33;5.33;;;;;;;;5127151;27;9679;-74
2023/10/10 16:39:23;;;;;;;;;6.67;6.67;;;;;;;;5133046;27;8812;-74
2023/10/10 16:41:48;;;;;;;;;0.00;0.00;;;;;;;;5127348;27;8818;-73
2023/10/10 16:44:14;;;;;;;;;9.00;6.00;;;;;;;;5139665;27;8811;-75
2023/10/10 16:46:40;;;;;;;;;6.00;5.00;;;;;;;;5138495;27;10076;-77
2023/10/10 16:49:08;;;;;;;;;6.33;5.67;;;;;;;;5138429;27;8801;-76
2023/10/10 16:51:34;;;;;;;;;8.67;5.00;;;;;;;;5121528;28;8838;-78
2023/10/10 16:53:59;;;;;;;;;5.67;4.33;;;;;;;;5122634;28;8872;-76
2023/10/10 16:56:25;;;;;;;;;5.67;3.67;;;;;;;;5119886;28;10217;-77
2023/10/10 16:58:50;;;;;;;;;8.00;5.67;;;;;;;;5122027;28;8808;-77
2023/10/10 17:01:16;;;;;;;;;5.67;4.00;;;;;;;;5120806;28;8799;-78
2023/10/10 17:03:45;;;;;;;;;5.00;4.00;;;;;;;;5122514;28;8783;-78
2023/10/10 17:06:22;;;;;;;;;6.50;4.50;;;;;;;;5122190;28;9012;-77
2023/10/10 17:08:48;;;;;;;;;5.67;5.00;;;;;;;;5122298;27;8762;-77
2023/10/10 17:11:14;;;;;;;;;8.33;5.00;;;;;;;;5121227;27;8946;-77
2023/10/10 17:13:40;;;;;;;;;8.00;5.00;;;;;;;;5118711;28;8768;-77
2023/10/10 17:16:13;;;;;;;;;6.00;4.00;;;;;;;;5118890;28;10301;-77
2023/10/10 17:18:42;;;;;;;;;5.67;4.00;;;;;;;;5122356;28;9075;-76
2023/10/10 17:21:08;;;;;;;;;3.33;3.33;;;;;;;;5122562;28;8910;-76
2023/10/10 17:23:35;;;;;;;;;3.00;3.00;;;;;;;;5121900;28;8952;-76
2023/10/10 17:26:00;;;;;;;;;4.00;4.00;;;;;;;;5122194;28;8875;-76